createdAt,value
2023-02-06T00:18:27.689Z,6.41
2023-02-06T00:38:33.486Z,6.02
2023-02-06T00:58:39.237Z,6.44
2023-02-06T01:18:44.989Z,6.28
2023-02-06T01:38:50.708Z,6.56
2023-02-06T01:58:56.483Z,6.06
2023-02-06T02:19:02.231Z,5.67
2023-02-06T02:39:07.953Z,5.92
2023-02-06T02:59:13.717Z,6.02
2023-02-06T03:19:19.452Z,5.99
2023-02-06T03:39:25.208Z,6.01
2023-02-06T04:01:24.569Z,8.00
2023-02-06T04:19:40.264Z,5.43
2023-02-06T04:39:46.022Z,5.65
2023-02-06T04:59:51.760Z,5.73
2023-02-06T06:00:15.795Z,6.45
2023-02-06T06:20:30.493Z,6.92
2023-02-06T07:40:54.141Z,4.12
2023-02-06T08:21:15.506Z,6.66
2023-02-06T09:01:10.600Z,7.06
2023-02-06T09:21:09.452Z,7.56
2023-02-06T09:41:21.373Z,6.76
2023-02-06T10:41:33.363Z,6.39
2023-02-06T11:01:39.218Z,6.11
2023-02-06T11:21:44.974Z,6.21
2023-02-06T11:41:50.713Z,4.33
2023-02-06T12:01:57.218Z,5.02
2023-02-06T12:22:02.952Z,4.25
2023-02-06T12:42:08.728Z,4.36
2023-02-06T13:02:14.611Z,5.02
2023-02-06T13:22:20.349Z,4.46
2023-02-06T13:42:26.207Z,13.17
2023-02-06T14:02:32.080Z,6.28
2023-02-06T14:22:37.853Z,5.03
2023-02-06T14:42:43.673Z,5.37
2023-02-06T15:02:49.477Z,6.44
2023-02-06T15:22:58.178Z,6.92
2023-02-06T15:43:00.525Z,6.88
2023-02-06T16:03:06.350Z,6.54
2023-02-06T16:23:12.140Z,7.45
2023-02-06T16:43:17.963Z,8.04
2023-02-06T17:03:23.738Z,8.74
2023-02-06T17:23:29.484Z,9.24
2023-02-06T17:43:35.429Z,10.39
2023-02-06T18:03:41.190Z,17.74
2023-02-06T18:23:47.444Z,12.55
2023-02-06T18:43:53.203Z,11.71
2023-02-06T19:03:59.022Z,11.71
2023-02-06T19:24:04.847Z,12.26
2023-02-06T19:44:10.570Z,9.91
2023-02-06T20:04:16.312Z,8.78
2023-02-06T20:24:22.178Z,10.54
2023-02-06T20:44:28.600Z,13.12
2023-02-06T21:04:37.337Z,13.32
2023-02-06T21:24:43.171Z,13.11
2023-02-06T21:44:48.925Z,13.95
2023-02-06T22:04:54.741Z,13.98
2023-02-06T22:25:00.536Z,12.94
2023-02-06T22:45:06.297Z,12.65
2023-02-06T23:05:12.120Z,12.74
2023-02-06T23:25:17.945Z,12.03
2023-02-06T23:45:25.978Z,11.11
